sensor_id;sensor_type;location;lat;lon;timestamp;temperature;humidity
64561;DHT22;50960;46.838;16.838;2023-12-07T00:00:05;1.50;99.90
64561;DHT22;50960;46.838;16.838;2023-12-07T00:02:31;1.50;99.90
64561;DHT22;50960;46.838;16.838;2023-12-07T00:04:58;1.40;99.90
64561;DHT22;50960;46.838;16.838;2023-12-07T00:07:24;1.50;99.90
64561;DHT22;50960;46.838;16.838;2023-12-07T00:09:50;1.50;99.90
64561;DHT22;50960;46.838;16.838;2023-12-07T00:12:17;1.60;99.90
64561;DHT22;50960;46.838;16.838;2023-12-07T00:14:43;1.60;99.90
64561;DHT22;50960;46.838;16.838;2023-12-07T00:17:09;1.60;99.90
64561;DHT22;50960;46.838;16.838;2023-12-07T00:19:36;1.50;99.90
64561;DHT22;50960;46.838;16.838;2023-12-07T00:22:02;1.50;99.90
64561;DHT22;50960;46.838;16.838;2023-12-07T00:24:28;1.40;99.90
64561;DHT22;50960;46.838;16.838;2023-12-07T00:26:54;1.50;99.90
64561;DHT22;50960;46.838;16.838;2023-12-07T00:29:22;1.50;99.90
64561;DHT22;50960;46.838;16.838;2023-12-07T00:31:48;1.50;99.90
64561;DHT22;50960;46.838;16.838;2023-12-07T00:34:14;1.50;99.90
64561;DHT22;50960;46.838;16.838;2023-12-07T00:36:40;1.50;99.90
64561;DHT22;50960;46.838;16.838;2023-12-07T00:39:07;1.50;99.90
64561;DHT22;50960;46.838;16.838;2023-12-07T00:41:33;1.50;99.90
64561;DHT22;50960;46.838;16.838;2023-12-07T00:44:00;1.50;99.90
64561;DHT22;50960;46.838;16.838;2023-12-07T00:46:26;1.50;99.90
64561;DHT22;50960;46.838;16.838;2023-12-07T00:48:52;1.40;99.90
64561;DHT22;50960;46.838;16.838;2023-12-07T00:51:19;1.20;99.90
64561;DHT22;50960;46.838;16.838;2023-12-07T00:53:45;1.10;99.90
64561;DHT22;50960;46.838;16.838;2023-12-07T00:56:11;1.10;99.90
64561;DHT22;50960;46.838;16.838;2023-12-07T00:58:37;1.10;99.90
64561;DHT22;50960;46.838;16.838;2023-12-07T01:01:04;1.10;99.90
64561;DHT22;50960;46.838;16.838;2023-12-07T01:03:30;1.10;99.90
64561;DHT22;50960;46.838;16.838;2023-12-07T01:05:56;1.10;99.90
64561;DHT22;50960;46.838;16.838;2023-12-07T01:08:23;1.10;99.90
64561;DHT22;50960;46.838;16.838;2023-12-07T01:10:49;1.10;99.90
64561;DHT22;50960;46.838;16.838;2023-12-07T01:13:15;1.20;99.90
64561;DHT22;50960;46.838;16.838;2023-12-07T01:15:41;1.20;99.90
64561;DHT22;50960;46.838;16.838;2023-12-07T01:18:07;1.10;99.90
64561;DHT22;50960;46.838;16.838;2023-12-07T01:20:34;1.10;99.90
64561;DHT22;50960;46.838;16.838;2023-12-07T01:23:00;1.00;99.90
64561;DHT22;50960;46.838;16.838;2023-12-07T01:25:26;1.00;99.90
64561;DHT22;50960;46.838;16.838;2023-12-07T01:27:52;1.00;99.90
64561;DHT22;50960;46.838;16.838;2023-12-07T01:30:19;1.00;99.90
64561;DHT22;50960;46.838;16.838;2023-12-07T01:32:45;1.00;99.90
64561;DHT22;50960;46.838;16.838;2023-12-07T01:35:11;1.10;99.90
64561;DHT22;50960;46.838;16.838;2023-12-07T01:37:38;1.00;99.90
64561;DHT22;50960;46.838;16.838;2023-12-07T01:40:05;0.90;99.90
64561;DHT22;50960;46.838;16.838;2023-12-07T01:42:38;1.00;99.90
64561;DHT22;50960;46.838;16.838;2023-12-07T01:45:05;1.00;99.90
64561;DHT22;50960;46.838;16.838;2023-12-07T01:47:32;0.80;99.90
64561;DHT22;50960;46.838;16.838;2023-12-07T01:50:00;0.90;99.90
64561;DHT22;50960;46.838;16.838;2023-12-07T01:52:31;0.90;99.90
64561;DHT22;50960;46.838;16.838;2023-12-07T01:54:57;0.90;99.90
64561;DHT22;50960;46.838;16.838;2023-12-07T01:57:24;1.00;99.90
64561;DHT22;50960;46.838;16.838;2023-12-07T01:59:51;0.90;99.90
64561;DHT22;50960;46.838;16.838;2023-12-07T02:02:17;0.80;99.90
64561;DHT22;50960;46.838;16.838;2023-12-07T02:04:43;0.80;99.90
64561;DHT22;50960;46.838;16.838;2023-12-07T02:07:09;0.80;99.90
64561;DHT22;50960;46.838;16.838;2023-12-07T02:09:37;0.80;99.90
64561;DHT22;50960;46.838;16.838;2023-12-07T02:12:04;0.90;99.90
64561;DHT22;50960;46.838;16.838;2023-12-07T02:14:30;0.90;99.90
64561;DHT22;50960;46.838;16.838;2023-12-07T02:17:01;0.80;99.90
64561;DHT22;50960;46.838;16.838;2023-12-07T02:22:21;0.90;99.90
64561;DHT22;50960;46.838;16.838;2023-12-07T02:25:03;0.70;99.90
64561;DHT22;50960;46.838;16.838;2023-12-07T02:27:35;0.90;99.90
64561;DHT22;50960;46.838;16.838;2023-12-07T02:30:01;0.90;99.90
64561;DHT22;50960;46.838;16.838;2023-12-07T02:32:28;0.90;99.90
64561;DHT22;50960;46.838;16.838;2023-12-07T02:34:54;1.00;99.90
64561;DHT22;50960;46.838;16.838;2023-12-07T02:37:21;1.00;99.90
64561;DHT22;50960;46.838;16.838;2023-12-07T02:39:50;1.00;99.90
64561;DHT22;50960;46.838;16.838;2023-12-07T02:42:17;1.00;99.90
64561;DHT22;50960;46.838;16.838;2023-12-07T02:44:44;1.00;99.90
64561;DHT22;50960;46.838;16.838;2023-12-07T02:47:11;1.00;99.90
64561;DHT22;50960;46.838;16.838;2023-12-07T02:49:37;1.00;99.90
64561;DHT22;50960;46.838;16.838;2023-12-07T02:52:03;0.90;99.90
64561;DHT22;50960;46.838;16.838;2023-12-07T02:54:30;0.90;99.90
64561;DHT22;50960;46.838;16.838;2023-12-07T02:56:56;0.80;99.90
64561;DHT22;50960;46.838;16.838;2023-12-07T02:59:22;0.80;99.90
64561;DHT22;50960;46.838;16.838;2023-12-07T03:01:48;0.70;99.90
64561;DHT22;50960;46.838;16.838;2023-12-07T03:04:16;0.60;99.90
64561;DHT22;50960;46.838;16.838;2023-12-07T03:06:42;0.50;99.90
64561;DHT22;50960;46.838;16.838;2023-12-07T03:09:08;0.50;99.90
64561;DHT22;50960;46.838;16.838;2023-12-07T03:11:34;0.50;99.90
64561;DHT22;50960;46.838;16.838;2023-12-07T03:14:01;0.50;99.90
64561;DHT22;50960;46.838;16.838;2023-12-07T03:16:27;0.50;99.90
64561;DHT22;50960;46.838;16.838;2023-12-07T03:18:53;0.60;99.90
64561;DHT22;50960;46.838;16.838;2023-12-07T03:21:19;0.60;99.90
64561;DHT22;50960;46.838;16.838;2023-12-07T03:23:45;0.60;99.90
64561;DHT22;50960;46.838;16.838;2023-12-07T03:26:12;0.60;99.90
64561;DHT22;50960;46.838;16.838;2023-12-07T03:28:38;0.50;99.90
64561;DHT22;50960;46.838;16.838;2023-12-07T03:31:04;0.40;99.90
64561;DHT22;50960;46.838;16.838;2023-12-07T03:33:31;0.50;99.90
64561;DHT22;50960;46.838;16.838;2023-12-07T03:35:57;0.60;99.90
64561;DHT22;50960;46.838;16.838;2023-12-07T03:38:23;0.60;99.90
64561;DHT22;50960;46.838;16.838;2023-12-07T03:40:49;0.70;99.90
64561;DHT22;50960;46.838;16.838;2023-12-07T03:43:18;0.70;99.90
64561;DHT22;50960;46.838;16.838;2023-12-07T03:45:45;0.70;99.90
64561;DHT22;50960;46.838;16.838;2023-12-07T03:48:12;0.60;99.90
64561;DHT22;50960;46.838;16.838;2023-12-07T03:50:38;0.50;99.90
64561;DHT22;50960;46.838;16.838;2023-12-07T03:53:04;0.50;99.90
64561;DHT22;50960;46.838;16.838;2023-12-07T03:55:30;0.50;99.90
64561;DHT22;50960;46.838;16.838;2023-12-07T03:57:57;0.40;99.90
64561;DHT22;50960;46.838;16.838;2023-12-07T04:00:23;0.40;99.90
64561;DHT22;50960;46.838;16.838;2023-12-07T04:02:49;0.40;99.90
64561;DHT22;50960;46.838;16.838;2023-12-07T04:05:16;0.50;99.90
64561;DHT22;50960;46.838;16.838;2023-12-07T04:07:42;0.60;99.90
64561;DHT22;50960;46.838;16.838;2023-12-07T04:10:09;0.50;99.90
64561;DHT22;50960;46.838;16.838;2023-12-07T04:12:35;0.40;99.90
64561;DHT22;50960;46.838;16.838;2023-12-07T04:15:01;0.40;99.90
64561;DHT22;50960;46.838;16.838;2023-12-07T04:17:28;0.50;99.90
64561;DHT22;50960;46.838;16.838;2023-12-07T04:19:54;0.50;99.90
64561;DHT22;50960;46.838;16.838;2023-12-07T04:22:20;0.50;99.90
64561;DHT22;50960;46.838;16.838;2023-12-07T04:24:46;0.40;99.90
64561;DHT22;50960;46.838;16.838;2023-12-07T04:27:13;0.40;99.90
64561;DHT22;50960;46.838;16.838;2023-12-07T04:29:39;0.40;99.90
64561;DHT22;50960;46.838;16.838;2023-12-07T04:32:07;0.50;99.90
64561;DHT22;50960;46.838;16.838;2023-12-07T04:34:33;0.40;99.90
64561;DHT22;50960;46.838;16.838;2023-12-07T04:36:59;0.50;99.90
64561;DHT22;50960;46.838;16.838;2023-12-07T04:39:26;0.40;99.90
64561;DHT22;50960;46.838;16.838;2023-12-07T04:41:52;0.50;99.90
64561;DHT22;50960;46.838;16.838;2023-12-07T04:44:18;0.50;99.90
64561;DHT22;50960;46.838;16.838;2023-12-07T04:46:45;0.60;99.90
64561;DHT22;50960;46.838;16.838;2023-12-07T04:49:11;0.60;99.90
64561;DHT22;50960;46.838;16.838;2023-12-07T04:51:37;0.60;99.90
64561;DHT22;50960;46.838;16.838;2023-12-07T04:54:04;0.50;99.90
64561;DHT22;50960;46.838;16.838;2023-12-07T04:56:30;0.60;99.90
64561;DHT22;50960;46.838;16.838;2023-12-07T04:58:56;0.50;99.90
64561;DHT22;50960;46.838;16.838;2023-12-07T05:01:22;0.60;99.90
64561;DHT22;50960;46.838;16.838;2023-12-07T05:03:49;0.60;99.90
64561;DHT22;50960;46.838;16.838;2023-12-07T05:06:15;0.60;99.90
64561;DHT22;50960;46.838;16.838;2023-12-07T05:08:41;0.50;99.90
64561;DHT22;50960;46.838;16.838;2023-12-07T05:11:09;0.60;99.90
64561;DHT22;50960;46.838;16.838;2023-12-07T05:13:35;0.50;99.90
64561;DHT22;50960;46.838;16.838;2023-12-07T05:16:02;0.60;99.90
64561;DHT22;50960;46.838;16.838;2023-12-07T05:18:30;0.50;99.90
64561;DHT22;50960;46.838;16.838;2023-12-07T05:20:56;0.60;99.90
64561;DHT22;50960;46.838;16.838;2023-12-07T05:23:22;0.50;99.90
64561;DHT22;50960;46.838;16.838;2023-12-07T05:25:49;0.50;99.90
64561;DHT22;50960;46.838;16.838;2023-12-07T05:28:15;0.40;99.90
64561;DHT22;50960;46.838;16.838;2023-12-07T05:30:41;0.50;99.90
64561;DHT22;50960;46.838;16.838;2023-12-07T05:33:07;0.40;99.90
64561;DHT22;50960;46.838;16.838;2023-12-07T05:35:34;0.40;99.90
64561;DHT22;50960;46.838;16.838;2023-12-07T05:38:00;0.40;99.90
64561;DHT22;50960;46.838;16.838;2023-12-07T05:40:26;0.40;99.90
64561;DHT22;50960;46.838;16.838;2023-12-07T05:42:53;0.50;99.90
64561;DHT22;50960;46.838;16.838;2023-12-07T05:45:19;0.40;99.90
64561;DHT22;50960;46.838;16.838;2023-12-07T05:47:45;0.50;99.90
64561;DHT22;50960;46.838;16.838;2023-12-07T05:50:12;0.50;99.90
64561;DHT22;50960;46.838;16.838;2023-12-07T05:52:38;0.50;99.90
64561;DHT22;50960;46.838;16.838;2023-12-07T05:55:05;0.50;99.90
64561;DHT22;50960;46.838;16.838;2023-12-07T05:57:31;0.60;99.90
64561;DHT22;50960;46.838;16.838;2023-12-07T05:59:58;0.80;99.90
64561;DHT22;50960;46.838;16.838;2023-12-07T06:02:25;1.10;99.90
64561;DHT22;50960;46.838;16.838;2023-12-07T06:04:51;0.90;99.90
64561;DHT22;50960;46.838;16.838;2023-12-07T06:07:17;0.80;99.90
64561;DHT22;50960;46.838;16.838;2023-12-07T16:27:30;2.60;99.90
64561;DHT22;50960;46.838;16.838;2023-12-07T16:29:56;2.50;99.90
64561;DHT22;50960;46.838;16.838;2023-12-07T16:32:22;2.40;99.90
64561;DHT22;50960;46.838;16.838;2023-12-07T16:34:49;2.20;99.90
64561;DHT22;50960;46.838;16.838;2023-12-07T16:37:16;2.10;99.90
64561;DHT22;50960;46.838;16.838;2023-12-07T16:39:43;2.00;99.90
64561;DHT22;50960;46.838;16.838;2023-12-07T16:42:10;1.90;99.90
64561;DHT22;50960;46.838;16.838;2023-12-07T16:44:37;2.10;99.90
64561;DHT22;50960;46.838;16.838;2023-12-07T16:47:04;2.10;99.90
64561;DHT22;50960;46.838;16.838;2023-12-07T16:49:32;2.10;99.90
64561;DHT22;50960;46.838;16.838;2023-12-07T16:51:58;2.20;99.90
64561;DHT22;50960;46.838;16.838;2023-12-07T16:54:26;2.30;99.90
64561;DHT22;50960;46.838;16.838;2023-12-07T16:56:52;2.10;99.90
64561;DHT22;50960;46.838;16.838;2023-12-07T16:59:19;1.90;99.90
64561;DHT22;50960;46.838;16.838;2023-12-07T17:01:45;1.90;99.90
64561;DHT22;50960;46.838;16.838;2023-12-07T17:04:12;2.10;99.90
64561;DHT22;50960;46.838;16.838;2023-12-07T17:06:38;2.20;99.90
64561;DHT22;50960;46.838;16.838;2023-12-07T17:09:05;2.20;99.90
64561;DHT22;50960;46.838;16.838;2023-12-07T17:11:31;2.30;99.90
64561;DHT22;50960;46.838;16.838;2023-12-07T17:13:57;2.20;99.90
64561;DHT22;50960;46.838;16.838;2023-12-07T17:16:24;2.20;99.90
64561;DHT22;50960;46.838;16.838;2023-12-07T17:18:52;2.10;99.90
64561;DHT22;50960;46.838;16.838;2023-12-07T17:21:20;2.00;99.90
64561;DHT22;50960;46.838;16.838;2023-12-07T17:23:48;1.80;99.90
64561;DHT22;50960;46.838;16.838;2023-12-07T17:26:14;1.80;99.90
64561;DHT22;50960;46.838;16.838;2023-12-07T17:28:40;1.80;99.90
64561;DHT22;50960;46.838;16.838;2023-12-07T17:31:07;1.50;99.90
64561;DHT22;50960;46.838;16.838;2023-12-07T17:33:46;1.30;99.90
64561;DHT22;50960;46.838;16.838;2023-12-07T17:36:12;1.20;99.90
64561;DHT22;50960;46.838;16.838;2023-12-07T17:38:38;1.10;99.90
64561;DHT22;50960;46.838;16.838;2023-12-07T17:41:04;1.10;99.90
64561;DHT22;50960;46.838;16.838;2023-12-07T17:43:37;1.00;99.90
64561;DHT22;50960;46.838;16.838;2023-12-07T17:46:04;0.90;99.90
64561;DHT22;50960;46.838;16.838;2023-12-07T17:48:30;1.00;99.90
64561;DHT22;50960;46.838;16.838;2023-12-07T17:50:58;0.80;99.90
64561;DHT22;50960;46.838;16.838;2023-12-07T17:53:27;0.90;99.90
64561;DHT22;50960;46.838;16.838;2023-12-07T17:55:53;1.00;99.90
64561;DHT22;50960;46.838;16.838;2023-12-07T17:58:19;0.80;99.90
64561;DHT22;50960;46.838;16.838;2023-12-07T18:00:45;0.90;99.90
64561;DHT22;50960;46.838;16.838;2023-12-07T18:03:11;0.80;99.90
64561;DHT22;50960;46.838;16.838;2023-12-07T18:05:38;0.70;99.90
64561;DHT22;50960;46.838;16.838;2023-12-07T18:08:04;0.60;99.90
64561;DHT22;50960;46.838;16.838;2023-12-07T18:10:31;0.60;99.90
64561;DHT22;50960;46.838;16.838;2023-12-07T18:12:57;0.50;99.90
64561;DHT22;50960;46.838;16.838;2023-12-07T18:15:23;0.50;99.90
64561;DHT22;50960;46.838;16.838;2023-12-07T18:17:50;0.30;99.90
64561;DHT22;50960;46.838;16.838;2023-12-07T18:20:16;0.40;99.90
64561;DHT22;50960;46.838;16.838;2023-12-07T18:22:42;0.40;99.90
64561;DHT22;50960;46.838;16.838;2023-12-07T18:25:09;0.30;99.90
64561;DHT22;50960;46.838;16.838;2023-12-07T18:27:35;0.20;99.90
64561;DHT22;50960;46.838;16.838;2023-12-07T18:30:01;0.10;99.90
64561;DHT22;50960;46.838;16.838;2023-12-07T18:32:28;0.00;99.90
64561;DHT22;50960;46.838;16.838;2023-12-07T18:34:54;0.10;99.90
64561;DHT22;50960;46.838;16.838;2023-12-07T18:37:20;0.30;99.90
64561;DHT22;50960;46.838;16.838;2023-12-07T18:39:47;0.50;99.90
64561;DHT22;50960;46.838;16.838;2023-12-07T18:42:13;0.50;99.90
64561;DHT22;50960;46.838;16.838;2023-12-07T18:44:39;0.50;99.90
64561;DHT22;50960;46.838;16.838;2023-12-07T18:47:06;0.50;99.90
64561;DHT22;50960;46.838;16.838;2023-12-07T18:49:32;0.40;99.90
64561;DHT22;50960;46.838;16.838;2023-12-07T18:51:59;0.20;99.90
64561;DHT22;50960;46.838;16.838;2023-12-07T18:54:31;0.10;99.90
64561;DHT22;50960;46.838;16.838;2023-12-07T18:57:02;0.00;99.90
64561;DHT22;50960;46.838;16.838;2023-12-07T18:59:30;-0.10;99.90
64561;DHT22;50960;46.838;16.838;2023-12-07T19:01:57;-0.10;99.90
64561;DHT22;50960;46.838;16.838;2023-12-07T19:04:23;-0.10;99.90
64561;DHT22;50960;46.838;16.838;2023-12-07T19:06:49;-0.10;99.90
64561;DHT22;50960;46.838;16.838;2023-12-07T19:09:16;-0.20;99.90
64561;DHT22;50960;46.838;16.838;2023-12-07T19:11:46;-0.10;99.90
64561;DHT22;50960;46.838;16.838;2023-12-07T19:14:13;-0.20;99.90
64561;DHT22;50960;46.838;16.838;2023-12-07T19:16:42;-0.30;99.90
64561;DHT22;50960;46.838;16.838;2023-12-07T19:19:09;-0.40;99.90
64561;DHT22;50960;46.838;16.838;2023-12-07T19:21:37;-0.40;99.90
64561;DHT22;50960;46.838;16.838;2023-12-07T19:24:04;-0.50;99.90
64561;DHT22;50960;46.838;16.838;2023-12-07T19:26:32;-0.30;99.90
64561;DHT22;50960;46.838;16.838;2023-12-07T19:28:58;-0.20;99.90
64561;DHT22;50960;46.838;16.838;2023-12-07T19:31:25;0.00;99.90
64561;DHT22;50960;46.838;16.838;2023-12-07T19:33:53;0.00;99.90
64561;DHT22;50960;46.838;16.838;2023-12-07T19:36:19;0.20;99.90
64561;DHT22;50960;46.838;16.838;2023-12-07T19:38:45;0.40;99.90
64561;DHT22;50960;46.838;16.838;2023-12-07T19:41:13;0.40;99.90
64561;DHT22;50960;46.838;16.838;2023-12-07T19:43:39;0.30;99.90
64561;DHT22;50960;46.838;16.838;2023-12-07T19:46:06;0.10;99.90
64561;DHT22;50960;46.838;16.838;2023-12-07T19:48:32;0.00;99.90
64561;DHT22;50960;46.838;16.838;2023-12-07T19:50:59;-0.10;99.90
64561;DHT22;50960;46.838;16.838;2023-12-07T19:53:25;-0.20;99.90
64561;DHT22;50960;46.838;16.838;2023-12-07T19:55:51;-0.30;99.90
64561;DHT22;50960;46.838;16.838;2023-12-07T19:58:18;-0.40;99.90
64561;DHT22;50960;46.838;16.838;2023-12-07T20:00:44;-0.40;99.90
64561;DHT22;50960;46.838;16.838;2023-12-07T20:03:10;-0.50;99.90
64561;DHT22;50960;46.838;16.838;2023-12-07T20:05:37;-0.50;99.90
64561;DHT22;50960;46.838;16.838;2023-12-07T20:08:03;-0.50;99.90
64561;DHT22;50960;46.838;16.838;2023-12-07T20:10:29;-0.60;99.90
64561;DHT22;50960;46.838;16.838;2023-12-07T20:12:57;-0.60;99.90
64561;DHT22;50960;46.838;16.838;2023-12-07T20:15:23;-0.70;99.90
64561;DHT22;50960;46.838;16.838;2023-12-07T20:17:50;-0.70;99.90
64561;DHT22;50960;46.838;16.838;2023-12-07T20:20:16;-0.70;99.90
64561;DHT22;50960;46.838;16.838;2023-12-07T20:22:42;-0.80;99.90
64561;DHT22;50960;46.838;16.838;2023-12-07T20:25:08;-0.80;99.90
64561;DHT22;50960;46.838;16.838;2023-12-07T20:27:35;-0.90;99.90
64561;DHT22;50960;46.838;16.838;2023-12-07T20:30:01;-1.10;99.90
64561;DHT22;50960;46.838;16.838;2023-12-07T20:32:27;-1.10;99.90
64561;DHT22;50960;46.838;16.838;2023-12-07T20:34:54;-1.10;99.90
64561;DHT22;50960;46.838;16.838;2023-12-07T20:37:20;-1.10;99.90
64561;DHT22;50960;46.838;16.838;2023-12-07T20:39:46;-1.10;99.90
64561;DHT22;50960;46.838;16.838;2023-12-07T20:42:12;-1.30;99.90
64561;DHT22;50960;46.838;16.838;2023-12-07T20:44:40;-1.30;99.90
64561;DHT22;50960;46.838;16.838;2023-12-07T20:47:07;-1.30;99.90
64561;DHT22;50960;46.838;16.838;2023-12-07T20:49:33;-1.30;99.90
64561;DHT22;50960;46.838;16.838;2023-12-07T20:51:59;-1.30;99.90
64561;DHT22;50960;46.838;16.838;2023-12-07T20:54:26;-1.40;99.90
64561;DHT22;50960;46.838;16.838;2023-12-07T20:56:54;-1.40;99.90
64561;DHT22;50960;46.838;16.838;2023-12-07T20:59:20;-1.40;99.90
64561;DHT22;50960;46.838;16.838;2023-12-07T21:01:46;-1.40;99.90
64561;DHT22;50960;46.838;16.838;2023-12-07T21:04:12;-1.40;99.90
64561;DHT22;50960;46.838;16.838;2023-12-07T21:06:39;-1.30;99.90
64561;DHT22;50960;46.838;16.838;2023-12-07T21:09:05;-1.20;99.90
64561;DHT22;50960;46.838;16.838;2023-12-07T21:11:31;-1.10;99.90
64561;DHT22;50960;46.838;16.838;2023-12-07T21:13:57;-1.10;99.90
64561;DHT22;50960;46.838;16.838;2023-12-07T21:16:24;-1.20;99.90
64561;DHT22;50960;46.838;16.838;2023-12-07T21:18:50;-1.20;99.90
64561;DHT22;50960;46.838;16.838;2023-12-07T21:21:17;-1.20;99.90
64561;DHT22;50960;46.838;16.838;2023-12-07T21:23:43;-1.30;99.90
64561;DHT22;50960;46.838;16.838;2023-12-07T21:26:13;-1.50;99.90
64561;DHT22;50960;46.838;16.838;2023-12-07T21:28:39;-1.50;99.90
64561;DHT22;50960;46.838;16.838;2023-12-07T21:31:06;-1.50;99.90
64561;DHT22;50960;46.838;16.838;2023-12-07T21:33:32;-1.60;99.90
64561;DHT22;50960;46.838;16.838;2023-12-07T21:36:03;-1.50;99.90
64561;DHT22;50960;46.838;16.838;2023-12-07T21:38:29;-1.50;99.90
64561;DHT22;50960;46.838;16.838;2023-12-07T21:40:55;-1.50;99.90
64561;DHT22;50960;46.838;16.838;2023-12-07T21:43:25;-1.60;99.90
64561;DHT22;50960;46.838;16.838;2023-12-07T21:45:51;-1.60;99.90
64561;DHT22;50960;46.838;16.838;2023-12-07T21:48:18;-1.70;99.90
64561;DHT22;50960;46.838;16.838;2023-12-07T21:50:44;-1.70;99.90
64561;DHT22;50960;46.838;16.838;2023-12-07T21:53:12;-1.80;99.90
64561;DHT22;50960;46.838;16.838;2023-12-07T21:55:38;-1.80;99.90
64561;DHT22;50960;46.838;16.838;2023-12-07T21:58:04;-1.80;99.90
64561;DHT22;50960;46.838;16.838;2023-12-07T22:00:31;-1.80;99.90
64561;DHT22;50960;46.838;16.838;2023-12-07T22:02:57;-1.80;99.90
64561;DHT22;50960;46.838;16.838;2023-12-07T22:05:23;-1.80;99.90
64561;DHT22;50960;46.838;16.838;2023-12-07T22:07:50;-1.80;99.90
64561;DHT22;50960;46.838;16.838;2023-12-07T22:10:18;-1.80;99.90
64561;DHT22;50960;46.838;16.838;2023-12-07T22:12:45;-1.80;99.90
64561;DHT22;50960;46.838;16.838;2023-12-07T22:15:12;-1.80;99.90
64561;DHT22;50960;46.838;16.838;2023-12-07T22:17:38;-1.80;99.90
64561;DHT22;50960;46.838;16.838;2023-12-07T22:20:05;-1.80;99.90
64561;DHT22;50960;46.838;16.838;2023-12-07T22:22:35;-1.80;99.90
64561;DHT22;50960;46.838;16.838;2023-12-07T22:25:03;-1.80;99.90
64561;DHT22;50960;46.838;16.838;2023-12-07T22:27:30;-1.80;99.90
64561;DHT22;50960;46.838;16.838;2023-12-07T22:29:57;-1.90;99.90
64561;DHT22;50960;46.838;16.838;2023-12-07T22:32:23;-1.90;99.90
64561;DHT22;50960;46.838;16.838;2023-12-07T22:34:50;-1.90;99.90
64561;DHT22;50960;46.838;16.838;2023-12-07T22:37:17;-1.90;99.90
64561;DHT22;50960;46.838;16.838;2023-12-07T22:39:44;-2.00;99.90
64561;DHT22;50960;46.838;16.838;2023-12-07T22:42:10;-2.10;99.90
64561;DHT22;50960;46.838;16.838;2023-12-07T22:44:36;-2.10;99.90
64561;DHT22;50960;46.838;16.838;2023-12-07T22:47:03;-2.20;99.90
64561;DHT22;50960;46.838;16.838;2023-12-07T22:49:29;-2.40;99.90
64561;DHT22;50960;46.838;16.838;2023-12-07T22:51:58;-2.40;99.90
64561;DHT22;50960;46.838;16.838;2023-12-07T22:54:25;-2.40;99.90
64561;DHT22;50960;46.838;16.838;2023-12-07T22:56:52;-2.50;99.90
64561;DHT22;50960;46.838;16.838;2023-12-07T22:59:18;-2.40;99.90
64561;DHT22;50960;46.838;16.838;2023-12-07T23:01:45;-2.40;99.90
64561;DHT22;50960;46.838;16.838;2023-12-07T23:04:11;-2.40;99.90
64561;DHT22;50960;46.838;16.838;2023-12-07T23:06:37;-2.40;99.90
64561;DHT22;50960;46.838;16.838;2023-12-07T23:09:03;-2.40;99.90
64561;DHT22;50960;46.838;16.838;2023-12-07T23:11:29;-2.50;99.90
64561;DHT22;50960;46.838;16.838;2023-12-07T23:13:56;-2.60;99.90
64561;DHT22;50960;46.838;16.838;2023-12-07T23:16:22;-2.70;99.90
64561;DHT22;50960;46.838;16.838;2023-12-07T23:18:51;-2.70;99.90
64561;DHT22;50960;46.838;16.838;2023-12-07T23:21:17;-2.60;99.90
64561;DHT22;50960;46.838;16.838;2023-12-07T23:23:44;-2.70;99.90
64561;DHT22;50960;46.838;16.838;2023-12-07T23:26:10;-2.80;99.90
64561;DHT22;50960;46.838;16.838;2023-12-07T23:28:36;-2.80;99.90
64561;DHT22;50960;46.838;16.838;2023-12-07T23:31:03;-2.80;99.90
64561;DHT22;50960;46.838;16.838;2023-12-07T23:33:29;-2.90;99.90
64561;DHT22;50960;46.838;16.838;2023-12-07T23:35:55;-2.90;99.90
64561;DHT22;50960;46.838;16.838;2023-12-07T23:38:22;-2.90;99.90
64561;DHT22;50960;46.838;16.838;2023-12-07T23:40:48;-2.90;99.90
64561;DHT22;50960;46.838;16.838;2023-12-07T23:43:14;-3.00;99.90
64561;DHT22;50960;46.838;16.838;2023-12-07T23:45:41;-3.00;99.90
64561;DHT22;50960;46.838;16.838;2023-12-07T23:48:08;-2.90;99.90
64561;DHT22;50960;46.838;16.838;2023-12-07T23:50:34;-2.90;99.90
64561;DHT22;50960;46.838;16.838;2023-12-07T23:53:02;-2.90;99.90
64561;DHT22;50960;46.838;16.838;2023-12-07T23:55:28;-3.00;99.90
64561;DHT22;50960;46.838;16.838;2023-12-07T23:57:54;-3.10;99.90
